createdAt,value
2022-09-28T00:00:08.028Z,1009.24
2022-09-28T00:01:08.581Z,1009.25
2022-09-28T00:02:09.246Z,1009.21
2022-09-28T00:03:09.979Z,1009.19
2022-09-28T00:04:10.562Z,1009.13
2022-09-28T00:05:11.139Z,1009.09
2022-09-28T00:06:11.695Z,1009.04
2022-09-28T00:07:12.253Z,1009.04
2022-09-28T00:08:13.142Z,1009.05
2022-09-28T00:09:13.795Z,1009.05
2022-09-28T00:10:14.388Z,1009.01
2022-09-28T00:11:14.944Z,1009.00
2022-09-28T00:12:15.495Z,1009.02
2022-09-28T00:13:16.114Z,1009.00
2022-09-28T00:14:16.673Z,1008.98
2022-09-28T00:15:17.226Z,1008.98
2022-09-28T00:16:17.837Z,1008.92
2022-09-28T00:17:18.427Z,1008.89
2022-09-28T00:18:19.113Z,1008.81
2022-09-28T00:19:19.663Z,1008.84
2022-09-28T00:20:20.231Z,1008.82
2022-09-28T00:21:20.774Z,1008.80
2022-09-28T00:22:21.324Z,1008.78
2022-09-28T00:23:21.945Z,1008.79
2022-09-28T00:24:27.324Z,1008.84
2022-09-28T00:25:23.404Z,1008.84
2022-09-28T00:26:23.944Z,1008.90
2022-09-28T00:27:24.498Z,1008.94
2022-09-28T00:28:25.090Z,1008.92
2022-09-28T00:29:25.630Z,1008.95
2022-09-28T00:30:26.175Z,1008.89
2022-09-28T00:31:26.796Z,1008.92
2022-09-28T00:32:27.373Z,1008.91
2022-09-28T00:33:27.992Z,1008.86
2022-09-28T00:34:28.544Z,1008.86
2022-09-28T00:35:29.111Z,1008.94
2022-09-28T00:36:29.654Z,1008.97
2022-09-28T00:37:30.207Z,1008.95
2022-09-28T00:38:30.792Z,1008.88
2022-09-28T00:39:31.335Z,1008.80
2022-09-28T00:40:32.008Z,1008.85
2022-09-28T00:41:32.589Z,1008.86
2022-09-28T00:42:33.148Z,1008.86
2022-09-28T00:43:33.919Z,1008.86
2022-09-28T00:44:34.474Z,1008.85
2022-09-28T00:45:35.148Z,1008.84
2022-09-28T00:46:35.748Z,1008.89
2022-09-28T00:47:36.297Z,1008.91
2022-09-28T00:48:36.947Z,1008.84
2022-09-28T00:49:37.503Z,1008.87
2022-09-28T00:50:38.080Z,1008.90
2022-09-28T00:51:38.631Z,1008.85
2022-09-28T00:52:39.176Z,1008.82
2022-09-28T00:53:39.749Z,1008.80
2022-09-28T00:54:40.300Z,1008.83
2022-09-28T00:55:40.846Z,1008.88
2022-09-28T00:56:41.393Z,1008.94
2022-09-28T00:57:41.944Z,1008.89
2022-09-28T00:58:42.598Z,1008.97
2022-09-28T00:59:43.162Z,1008.98
2022-09-28T01:00:43.765Z,1008.96
2022-09-28T01:01:44.440Z,1008.97
2022-09-28T01:02:45.061Z,1008.98
2022-09-28T01:03:45.680Z,1008.98
2022-09-28T01:04:46.276Z,1009.01
2022-09-28T01:05:46.906Z,1009.03
2022-09-28T01:06:47.450Z,1008.98
2022-09-28T01:07:47.992Z,1008.97
2022-09-28T01:08:48.568Z,1008.89
2022-09-28T01:09:49.111Z,1008.89
2022-09-28T01:10:49.657Z,1008.93
2022-09-28T01:11:50.209Z,1008.86
2022-09-28T01:12:50.761Z,1008.86
2022-09-28T01:13:51.481Z,1008.83
2022-09-28T01:14:52.027Z,1008.79
2022-09-28T01:15:52.697Z,1008.82
2022-09-28T01:16:53.309Z,1008.85
2022-09-28T01:17:53.862Z,1008.87
2022-09-28T01:18:54.503Z,1008.86
2022-09-28T01:19:55.059Z,1008.81
2022-09-28T01:20:55.627Z,1008.76
2022-09-28T01:21:56.169Z,1008.74
2022-09-28T01:22:56.716Z,1008.73
2022-09-28T01:23:57.326Z,1008.80
2022-09-28T01:24:57.876Z,1008.83
2022-09-28T01:25:58.423Z,1008.83
2022-09-28T01:26:58.981Z,1008.84
2022-09-28T01:27:59.537Z,1008.89
2022-09-28T01:29:00.138Z,1008.94
2022-09-28T01:30:00.691Z,1008.95
2022-09-28T01:31:01.233Z,1008.94
2022-09-28T01:32:01.876Z,1009.08
2022-09-28T01:33:02.483Z,1009.13
2022-09-28T01:34:03.067Z,1009.10
2022-09-28T01:35:03.626Z,1009.07
2022-09-28T01:36:04.209Z,1009.06
2022-09-28T01:37:04.764Z,1009.05
2022-09-28T01:38:05.313Z,1009.03
2022-09-28T01:39:05.894Z,1009.03
2022-09-28T01:40:06.446Z,1009.03
2022-09-28T01:41:07.008Z,1009.02
2022-09-28T01:42:07.556Z,1009.09
2022-09-28T01:43:08.112Z,1009.10
2022-09-28T01:44:08.870Z,1009.11
2022-09-28T01:45:09.419Z,1009.13
2022-09-28T01:46:10.060Z,1009.13
2022-09-28T01:47:10.672Z,1009.14
2022-09-28T01:48:11.223Z,1009.14
2022-09-28T01:49:11.894Z,1009.17
2022-09-28T01:50:12.443Z,1009.19
2022-09-28T01:51:13.022Z,1009.22
2022-09-28T01:52:13.567Z,1009.25
2022-09-28T01:53:14.117Z,1009.19
2022-09-28T01:54:14.712Z,1009.23
2022-09-28T01:55:15.319Z,1009.20
2022-09-28T01:56:15.865Z,1009.20
2022-09-28T01:57:16.419Z,1009.21
2022-09-28T01:58:16.971Z,1009.20
2022-09-28T01:59:17.828Z,1009.23
2022-09-28T02:00:18.478Z,1009.24
2022-09-28T02:01:19.042Z,1009.21
2022-09-28T02:02:19.749Z,1009.18
2022-09-28T02:03:20.355Z,1009.21
2022-09-28T02:04:20.949Z,1009.22
2022-09-28T02:05:21.537Z,1009.17
2022-09-28T02:06:22.102Z,1009.17
2022-09-28T02:07:22.652Z,1009.17
2022-09-28T02:08:23.201Z,1009.18
2022-09-28T02:09:23.775Z,1009.21
2022-09-28T02:10:24.324Z,1009.20
2022-09-28T02:11:24.866Z,1009.18
2022-09-28T02:12:25.417Z,1009.16
2022-09-28T02:13:25.974Z,1009.15
2022-09-28T02:14:26.591Z,1009.12
2022-09-28T02:15:27.154Z,1009.12
2022-09-28T02:16:27.752Z,1009.10
2022-09-28T02:17:28.311Z,1009.11
2022-09-28T02:18:28.865Z,1009.11
2022-09-28T02:19:29.470Z,1009.13
2022-09-28T02:20:30.022Z,1009.15
2022-09-28T02:21:30.608Z,1009.17
2022-09-28T02:22:31.164Z,1009.16
2022-09-28T02:23:31.704Z,1009.13
2022-09-28T02:24:32.486Z,1009.10
2022-09-28T02:25:33.035Z,1009.09
2022-09-28T02:26:33.595Z,1009.08
2022-09-28T02:27:34.139Z,1009.08
2022-09-28T02:28:34.690Z,1009.07
2022-09-28T02:29:35.259Z,1009.05
2022-09-28T02:30:35.820Z,1009.06
2022-09-28T02:31:36.421Z,1009.11
2022-09-28T02:32:37.000Z,1009.16
2022-09-28T02:33:37.557Z,1009.16
2022-09-28T02:34:38.141Z,1009.18
2022-09-28T02:35:38.692Z,1009.21
2022-09-28T02:36:39.263Z,1009.22
2022-09-28T02:37:39.811Z,1009.24
2022-09-28T02:38:40.369Z,1009.23
2022-09-28T02:39:40.955Z,1009.23
2022-09-28T02:40:41.554Z,1009.24
2022-09-28T02:41:42.129Z,1009.29
2022-09-28T02:42:42.677Z,1009.27
2022-09-28T02:43:43.234Z,1009.22
2022-09-28T02:44:44.005Z,1009.18
2022-09-28T02:45:44.641Z,1009.17
2022-09-28T02:46:45.232Z,1009.23
2022-09-28T02:47:45.770Z,1009.29
2022-09-28T02:48:55.786Z,1009.33
2022-09-28T02:49:47.290Z,1009.35
2022-09-28T02:50:47.839Z,1009.33
2022-09-28T02:51:48.413Z,1009.29
2022-09-28T02:52:48.964Z,1009.31
2022-09-28T02:53:49.527Z,1009.31
2022-09-28T02:54:50.171Z,1009.26
2022-09-28T02:55:50.721Z,1009.26
2022-09-28T02:56:51.272Z,1009.30
2022-09-28T02:57:51.817Z,1009.34
2022-09-28T02:58:52.367Z,1009.36
2022-09-28T02:59:52.991Z,1009.35
2022-09-28T03:00:53.606Z,1009.35
2022-09-28T03:01:54.286Z,1009.39
2022-09-28T03:02:54.888Z,1009.39
2022-09-28T03:03:55.517Z,1009.40
2022-09-28T03:04:56.228Z,1009.39
2022-09-28T03:05:56.775Z,1009.37
2022-09-28T03:06:57.353Z,1009.33
2022-09-28T03:07:57.910Z,1009.33
2022-09-28T03:08:58.459Z,1009.38
2022-09-28T03:09:59.044Z,1009.37
2022-09-28T03:10:59.586Z,1009.40
2022-09-28T03:12:00.129Z,1009.47
2022-09-28T03:13:00.668Z,1009.53
2022-09-28T03:14:01.215Z,1009.64
2022-09-28T03:15:01.840Z,1009.65
2022-09-28T03:16:02.449Z,1009.66
2022-09-28T03:17:03.048Z,1009.66
2022-09-28T03:18:03.601Z,1009.66
2022-09-28T03:19:04.139Z,1009.66
2022-09-28T03:20:04.787Z,1009.70
2022-09-28T03:21:05.342Z,1009.72
2022-09-28T03:22:05.912Z,1009.69
2022-09-28T03:23:23.858Z,1009.67
2022-09-28T03:24:07.374Z,1009.58
2022-09-28T03:25:07.945Z,1009.52
2022-09-28T03:26:08.487Z,1009.45
2022-09-28T03:27:09.094Z,1009.37
2022-09-28T03:28:09.638Z,1009.33
2022-09-28T03:29:10.290Z,1009.33
2022-09-28T03:30:10.943Z,1009.35
2022-09-28T03:31:11.508Z,1009.40
2022-09-28T03:32:12.077Z,1009.41
2022-09-28T03:33:12.629Z,1009.41
2022-09-28T03:34:13.179Z,1009.37
2022-09-28T03:35:13.754Z,1009.32
2022-09-28T03:36:14.315Z,1009.34
2022-09-28T03:37:14.899Z,1009.32
2022-09-28T03:38:15.451Z,1009.30
2022-09-28T03:39:16.090Z,1009.29
2022-09-28T03:40:16.800Z,1009.29
2022-09-28T03:41:17.387Z,1009.30
2022-09-28T03:42:17.938Z,1009.34
2022-09-28T03:43:18.486Z,1009.32
2022-09-28T03:44:19.027Z,1009.31
2022-09-28T03:45:19.693Z,1009.36
2022-09-28T03:46:20.307Z,1009.41
2022-09-28T03:47:20.894Z,1009.40
2022-09-28T03:48:24.514Z,1009.38
2022-09-28T03:49:22.382Z,1009.37
2022-09-28T03:50:23.039Z,1009.38
2022-09-28T03:51:23.587Z,1009.36
2022-09-28T03:52:24.163Z,1009.34
2022-09-28T03:53:24.666Z,1009.38
2022-09-28T03:54:25.217Z,1009.36
2022-09-28T03:55:25.796Z,1009.38
2022-09-28T03:56:26.353Z,1009.39
2022-09-28T03:57:26.874Z,1009.34
2022-09-28T03:58:27.434Z,1009.41
2022-09-28T03:59:27.936Z,1009.38
2022-09-28T04:00:28.598Z,1009.35
2022-09-28T04:01:29.162Z,1009.42
2022-09-28T04:02:29.804Z,1009.42
2022-09-28T04:03:30.344Z,1009.45
2022-09-28T04:04:30.839Z,1009.51
2022-09-28T04:05:31.845Z,1009.48
2022-09-28T04:06:32.335Z,1009.41
2022-09-28T04:07:32.851Z,1009.43
2022-09-28T04:08:33.351Z,1009.47
2022-09-28T04:09:33.862Z,1009.47
2022-09-28T04:10:34.388Z,1009.41
2022-09-28T04:11:53.136Z,1009.44
2022-09-28T04:12:35.747Z,1009.40
2022-09-28T04:13:36.248Z,1009.34
2022-09-28T04:14:36.753Z,1009.33
2022-09-28T04:15:37.267Z,1009.32
2022-09-28T04:16:37.821Z,1009.28
2022-09-28T04:17:40.277Z,1009.23
2022-09-28T04:18:38.887Z,1009.29
2022-09-28T04:19:39.384Z,1009.33
2022-09-28T04:20:39.983Z,1009.32
2022-09-28T04:21:40.480Z,1009.33
2022-09-28T04:22:41.495Z,1009.41
2022-09-28T04:23:41.997Z,1009.39
2022-09-28T04:24:42.499Z,1009.37
2022-09-28T04:25:43.027Z,1009.42
2022-09-28T04:26:43.521Z,1009.36
2022-09-28T04:27:45.161Z,1009.41
2022-09-28T04:28:44.960Z,1009.43
2022-09-28T04:29:45.457Z,1009.42
2022-09-28T04:30:46.757Z,1009.42
2022-09-28T04:31:47.309Z,1009.46
2022-09-28T04:32:47.848Z,1009.46
2022-09-28T04:33:48.336Z,1009.48
2022-09-28T04:34:49.336Z,1009.53
2022-09-28T04:35:49.867Z,1009.53
2022-09-28T04:36:50.369Z,1009.49
2022-09-28T04:37:50.889Z,1009.54
2022-09-28T04:38:53.625Z,1009.55
2022-09-28T04:39:52.285Z,1009.49
2022-09-28T04:40:53.362Z,1009.49
2022-09-28T04:41:53.387Z,1009.56
2022-09-28T04:42:54.699Z,1009.55
2022-09-28T04:43:54.723Z,1009.50
2022-09-28T04:44:55.212Z,1009.44
2022-09-28T04:45:56.415Z,1009.38
2022-09-28T04:46:56.659Z,1009.37
2022-09-28T04:47:58.717Z,1009.37
2022-09-28T04:48:57.896Z,1009.42
2022-09-28T04:49:58.388Z,1009.45
2022-09-28T04:50:58.939Z,1009.44
2022-09-28T04:51:59.431Z,1009.36
2022-09-28T04:53:00.450Z,1009.30
2022-09-28T04:54:00.991Z,1009.29
2022-09-28T04:55:01.511Z,1009.33
2022-09-28T04:56:02.073Z,1009.41
2022-09-28T04:57:10.216Z,1009.46
2022-09-28T04:58:03.256Z,1009.51
2022-09-28T04:59:03.766Z,1009.54
2022-09-28T05:00:04.272Z,1009.58
2022-09-28T05:01:05.101Z,1009.54
2022-09-28T05:02:07.884Z,1009.50
2022-09-28T05:03:10.852Z,1009.47
2022-09-28T05:04:07.196Z,1009.48
2022-09-28T05:05:08.809Z,1009.50
2022-09-28T05:06:24.727Z,1009.47
2022-09-28T05:07:09.003Z,1009.45
2022-09-28T05:08:10.643Z,1009.45
2022-09-28T05:09:10.469Z,1009.42
2022-09-28T05:10:11.020Z,1009.41
2022-09-28T05:11:37.025Z,1009.40
2022-09-28T05:12:12.448Z,1009.39
2022-09-28T05:13:12.970Z,1009.37
2022-09-28T05:14:24.473Z,1009.37
2022-09-28T05:15:14.384Z,1009.37
2022-09-28T05:16:16.184Z,1009.39
2022-09-28T05:17:15.549Z,1009.38
2022-09-28T05:18:27.889Z,1009.37
2022-09-28T05:19:17.947Z,1009.35
2022-09-28T05:20:19.759Z,1009.36
2022-09-28T05:21:20.962Z,1009.37
2022-09-28T05:22:20.330Z,1009.42
2022-09-28T05:23:30.068Z,1009.47
2022-09-28T05:24:30.870Z,1009.47
2022-09-28T05:25:22.163Z,1009.48
2022-09-28T05:26:22.656Z,1009.46
2022-09-28T05:27:23.682Z,1009.48
2022-09-28T05:28:24.192Z,1009.51
2022-09-28T05:29:25.803Z,1009.54
2022-09-28T05:30:25.523Z,1009.54
2022-09-28T05:31:26.075Z,1009.51
2022-09-28T05:32:26.623Z,1009.49
2022-09-28T05:33:27.121Z,1009.50
2022-09-28T05:34:27.619Z,1009.50
2022-09-28T05:35:28.117Z,1009.51
2022-09-28T05:36:28.626Z,1009.52
2022-09-28T05:37:29.153Z,1009.56
2022-09-28T05:38:29.656Z,1009.58
2022-09-28T05:39:30.176Z,1009.58
2022-09-28T05:40:30.844Z,1009.62
2022-09-28T05:41:31.370Z,1009.62
2022-09-28T05:42:31.897Z,1009.62
2022-09-28T05:43:32.389Z,1009.68
2022-09-28T05:44:32.883Z,1009.70
2022-09-28T05:45:33.476Z,1009.71
2022-09-28T05:46:34.029Z,1009.74
2022-09-28T05:47:34.614Z,1009.75
2022-09-28T05:48:35.123Z,1009.78
2022-09-28T05:49:35.720Z,1009.79
2022-09-28T05:50:36.238Z,1009.80
2022-09-28T05:51:36.739Z,1009.81
2022-09-28T05:52:37.263Z,1009.81
2022-09-28T05:53:37.763Z,1009.82
2022-09-28T05:54:38.290Z,1009.80
2022-09-28T05:55:38.815Z,1009.81
2022-09-28T05:56:39.318Z,1009.82
2022-09-28T05:57:39.920Z,1009.78
2022-09-28T05:58:40.429Z,1009.78
2022-09-28T05:59:42.668Z,1009.78
2022-09-28T06:00:42.178Z,1009.75
2022-09-28T06:01:42.840Z,1009.77
2022-09-28T06:02:43.785Z,1009.71
2022-09-28T06:03:44.282Z,1009.76
2022-09-28T06:04:45.127Z,1009.77
2022-09-28T06:05:45.655Z,1009.81
2022-09-28T06:06:46.145Z,1009.91
2022-09-28T06:07:46.707Z,1009.95
2022-09-28T06:08:47.319Z,1010.01
2022-09-28T06:09:47.849Z,1010.04
2022-09-28T06:10:48.356Z,1010.01
2022-09-28T06:11:49.983Z,1010.05
2022-09-28T06:12:49.708Z,1010.02
2022-09-28T06:13:50.206Z,1010.02
2022-09-28T06:14:50.707Z,1009.98
2022-09-28T06:15:51.203Z,1009.99
2022-09-28T06:16:51.746Z,1009.95
2022-09-28T06:17:52.481Z,1009.94
2022-09-28T06:19:03.284Z,1009.95
2022-09-28T06:19:53.766Z,1009.98
2022-09-28T06:20:54.262Z,1009.99
2022-09-28T06:21:54.761Z,1009.91
2022-09-28T06:22:55.299Z,1009.92
2022-09-28T06:23:55.795Z,1009.96
2022-09-28T06:24:56.309Z,1009.98
2022-09-28T06:26:00.709Z,1010.01
2022-09-28T06:27:00.403Z,1010.05
2022-09-28T06:27:58.455Z,1010.07
2022-09-28T06:28:58.950Z,1010.04
2022-09-28T06:29:59.448Z,1010.00
2022-09-28T06:31:00.046Z,1009.95
2022-09-28T06:32:00.594Z,1009.93
2022-09-28T06:33:01.120Z,1009.91
2022-09-28T06:34:01.607Z,1009.88
2022-09-28T06:35:02.112Z,1009.86
2022-09-28T06:36:03.109Z,1009.84
2022-09-28T06:37:03.596Z,1009.87
2022-09-28T06:38:04.137Z,1009.89
2022-09-28T06:39:04.637Z,1009.91
2022-09-28T06:40:05.241Z,1009.96
2022-09-28T06:41:05.807Z,1009.96
2022-09-28T06:42:06.362Z,1009.97
2022-09-28T06:43:08.947Z,1010.01
2022-09-28T06:44:07.590Z,1010.08
2022-09-28T06:45:08.098Z,1010.10
2022-09-28T06:46:08.722Z,1010.13
2022-09-28T06:47:09.274Z,1010.14
2022-09-28T06:48:10.841Z,1010.23
2022-09-28T06:49:10.338Z,1010.27
2022-09-28T06:50:10.832Z,1010.27
2022-09-28T06:51:12.440Z,1010.19
2022-09-28T06:52:13.199Z,1010.18
2022-09-28T06:53:12.724Z,1010.24
2022-09-28T06:54:13.218Z,1010.23
2022-09-28T06:55:14.237Z,1010.20
2022-09-28T06:56:14.736Z,1010.32
2022-09-28T06:57:15.234Z,1010.30
2022-09-28T06:58:16.265Z,1010.32
2022-09-28T06:59:20.873Z,1010.32
2022-09-28T07:00:17.619Z,1010.30
2022-09-28T07:01:18.197Z,1010.33
2022-09-28T07:02:21.494Z,1010.38
2022-09-28T07:03:19.579Z,1010.44
2022-09-28T07:04:21.535Z,1010.37
2022-09-28T07:05:21.046Z,1010.31
2022-09-28T07:06:24.572Z,1010.30
2022-09-28T07:07:22.576Z,1010.27
2022-09-28T07:08:23.133Z,1010.20
2022-09-28T07:09:33.154Z,1010.21
2022-09-28T07:10:24.516Z,1010.18
2022-09-28T07:11:25.349Z,1010.22
2022-09-28T07:12:25.846Z,1010.14
2022-09-28T07:13:48.840Z,1010.16
2022-09-28T07:14:44.392Z,1010.20
2022-09-28T07:15:28.579Z,1010.40
2022-09-28T07:16:48.826Z,1010.27
2022-09-28T07:17:30.349Z,1010.39
2022-09-28T07:18:30.669Z,1010.28
2022-09-28T07:19:31.229Z,1010.33
2022-09-28T07:20:33.309Z,1010.45
2022-09-28T07:21:32.749Z,1010.32
2022-09-28T07:22:42.433Z,1010.30
2022-09-28T07:23:43.577Z,1010.26
2022-09-28T07:24:35.048Z,1010.27
2022-09-28T07:25:35.643Z,1010.21
2022-09-28T07:26:36.243Z,1010.26
2022-09-28T07:27:58.750Z,1010.33
2022-09-28T07:28:51.445Z,1010.33
2022-09-28T07:29:38.740Z,1010.35
2022-09-28T07:30:39.507Z,1010.39
2022-09-28T07:31:40.068Z,1010.38
2022-09-28T07:32:41.067Z,1010.26
2022-09-28T07:33:41.775Z,1010.27
2022-09-28T07:36:32.249Z,1010.29
2022-09-28T07:37:34.874Z,1010.30
2022-09-28T07:38:36.345Z,1010.38
2022-09-28T07:39:34.434Z,1010.41
2022-09-28T07:40:35.276Z,1010.44
2022-09-28T07:41:35.807Z,1010.46
2022-09-28T07:42:36.449Z,1010.51
2022-09-28T07:43:40.158Z,1010.51
2022-09-28T07:44:47.972Z,1010.59
2022-09-28T07:45:38.770Z,1010.65
2022-09-28T07:46:40.532Z,1010.72
2022-09-28T07:47:40.084Z,1010.78
2022-09-28T07:48:40.692Z,1010.76
2022-09-28T07:49:41.299Z,1010.69
2022-09-28T07:50:41.825Z,1010.66
2022-09-28T07:51:42.321Z,1010.65
2022-09-28T07:52:43.176Z,1010.61
2022-09-28T07:53:43.723Z,1010.60
2022-09-28T07:54:44.248Z,1010.68
2022-09-28T07:55:46.587Z,1010.57
2022-09-28T07:56:45.609Z,1010.55
2022-09-28T07:57:46.106Z,1010.51
2022-09-28T07:58:46.619Z,1010.50
2022-09-28T07:59:47.371Z,1010.48
2022-09-28T08:00:47.924Z,1010.43
2022-09-28T08:01:48.454Z,1010.42
2022-09-28T08:02:49.632Z,1010.35
2022-09-28T08:03:49.637Z,1010.37
2022-09-28T08:04:56.159Z,1010.31
2022-09-28T08:06:04.376Z,1010.27
2022-09-28T08:07:06.758Z,1010.39
2022-09-28T08:07:52.426Z,1010.24
2022-09-28T08:08:57.000Z,1010.23
2022-09-28T08:09:54.594Z,1010.22
2022-09-28T08:11:54.290Z,1010.18
2022-09-28T08:13:02.163Z,1010.30
2022-09-28T08:13:56.700Z,1010.32
2022-09-28T08:15:01.678Z,1010.39
2022-09-28T08:15:58.380Z,1010.39
2022-09-28T08:16:58.932Z,1010.36
2022-09-28T08:18:02.932Z,1010.40
2022-09-28T08:19:00.019Z,1010.39
2022-09-28T08:20:01.032Z,1010.43
2022-09-28T08:21:01.167Z,1010.54
2022-09-28T08:22:01.660Z,1010.55
2022-09-28T08:23:02.671Z,1010.48
2022-09-28T08:24:03.286Z,1010.54
2022-09-28T08:25:03.812Z,1010.35
2022-09-28T08:26:04.311Z,1010.38
2022-09-28T08:27:04.869Z,1010.34
2022-09-28T08:28:05.399Z,1010.35
2022-09-28T08:29:05.932Z,1010.36
2022-09-28T08:30:06.511Z,1010.35
2022-09-28T08:31:07.210Z,1010.30
2022-09-28T08:32:07.814Z,1010.38
2022-09-28T08:33:08.407Z,1010.30
2022-09-28T08:34:08.941Z,1010.37
2022-09-28T08:35:09.569Z,1010.39
2022-09-28T08:36:10.124Z,1010.32
2022-09-28T08:37:10.662Z,1010.41
2022-09-28T08:38:11.195Z,1010.46
2022-09-28T08:39:11.963Z,1010.65
2022-09-28T08:40:12.791Z,1010.44
2022-09-28T08:41:13.340Z,1010.22
2022-09-28T08:42:13.891Z,1010.24
2022-09-28T08:43:14.425Z,1010.23
2022-09-28T08:44:14.991Z,1010.18
2022-09-28T08:45:15.923Z,1010.20
2022-09-28T08:46:16.740Z,1010.18
2022-09-28T08:47:17.262Z,1010.22
2022-09-28T08:48:17.781Z,1010.22
2022-09-28T08:49:25.328Z,1010.26
2022-09-28T08:50:19.314Z,1010.28
2022-09-28T08:51:19.815Z,1010.19
2022-09-28T08:52:20.313Z,1010.15
2022-09-28T08:53:20.829Z,1010.18
2022-09-28T08:54:21.824Z,1010.09
2022-09-28T08:55:22.813Z,1010.16
2022-09-28T08:56:23.305Z,1009.97
2022-09-28T08:57:23.829Z,1009.94
2022-09-28T08:58:24.331Z,1009.91
2022-09-28T08:59:24.823Z,1009.93
2022-09-28T09:00:26.046Z,1009.96
2022-09-28T09:01:26.730Z,1009.99
2022-09-28T09:02:27.469Z,1009.99
2022-09-28T09:03:27.997Z,1009.97
2022-09-28T09:04:28.485Z,1010.13
2022-09-28T09:05:29.021Z,1010.05
2022-09-28T09:06:29.513Z,1010.03
2022-09-28T09:07:30.512Z,1010.08
2022-09-28T09:08:31.013Z,1010.12
2022-09-28T09:09:31.547Z,1010.09
2022-09-28T09:10:32.083Z,1010.10
2022-09-28T09:11:32.592Z,1010.24
2022-09-28T09:12:33.136Z,1010.22
2022-09-28T09:13:33.630Z,1010.35
2022-09-28T09:14:34.121Z,1010.31
2022-09-28T09:15:34.672Z,1010.38
2022-09-28T09:16:35.202Z,1010.25
2022-09-28T09:17:35.747Z,1010.27
2022-09-28T09:18:36.242Z,1010.34
2022-09-28T09:19:36.736Z,1010.38
2022-09-28T09:20:37.269Z,1010.27
2022-09-28T09:21:37.765Z,1010.27
2022-09-28T09:22:38.268Z,1010.17
2022-09-28T09:23:38.780Z,1010.16
2022-09-28T09:24:39.284Z,1010.20
2022-09-28T09:25:39.804Z,1010.14
2022-09-28T09:26:40.295Z,1010.08
2022-09-28T09:27:41.382Z,1010.13
2022-09-28T09:28:41.887Z,1010.16
2022-09-28T09:29:42.395Z,1010.17
2022-09-28T09:30:42.973Z,1010.12
2022-09-28T09:31:43.514Z,1010.06
2022-09-28T09:32:44.014Z,1010.10
2022-09-28T09:33:44.530Z,1010.08
2022-09-28T09:34:45.053Z,1010.10
2022-09-28T09:35:45.590Z,1009.96
2022-09-28T09:36:46.100Z,1010.01
2022-09-28T09:37:46.594Z,1010.09
2022-09-28T09:38:47.089Z,1010.13
2022-09-28T09:39:47.724Z,1010.04
2022-09-28T09:40:48.299Z,1009.99
2022-09-28T09:41:48.856Z,1009.98
2022-09-28T09:42:49.381Z,1010.03
2022-09-28T09:43:50.057Z,1010.12
2022-09-28T09:44:50.575Z,1010.08
2022-09-28T09:45:51.133Z,1010.06
2022-09-28T09:46:51.657Z,1010.07
2022-09-28T09:47:52.146Z,1010.08
2022-09-28T09:48:52.641Z,1010.04
2022-09-28T09:49:53.147Z,1009.97
2022-09-28T09:50:53.730Z,1009.95
2022-09-28T09:51:58.824Z,1010.01
2022-09-28T09:52:54.924Z,1009.97
2022-09-28T09:53:55.758Z,1009.97
2022-09-28T09:54:56.327Z,1009.98
2022-09-28T09:55:56.927Z,1009.87
2022-09-28T09:56:57.426Z,1009.85
2022-09-28T09:57:57.957Z,1009.87
2022-09-28T09:58:58.466Z,1009.84
2022-09-28T09:59:58.981Z,1009.84
2022-09-28T10:00:59.689Z,1009.76
2022-09-28T10:02:00.297Z,1009.81
2022-09-28T10:03:00.846Z,1009.78
2022-09-28T10:04:01.389Z,1009.82
2022-09-28T10:05:01.896Z,1009.77
2022-09-28T10:06:02.427Z,1009.84
2022-09-28T10:07:02.927Z,1009.76
2022-09-28T10:08:03.419Z,1009.75
2022-09-28T10:09:09.404Z,1009.63
2022-09-28T10:10:06.363Z,1009.69
2022-09-28T10:11:05.407Z,1009.70
2022-09-28T10:12:05.916Z,1009.76
2022-09-28T10:13:06.468Z,1009.68
2022-09-28T10:14:06.972Z,1009.76
2022-09-28T10:15:07.477Z,1009.65
2022-09-28T10:16:08.517Z,1009.64
2022-09-28T10:17:11.344Z,1009.68
2022-09-28T10:18:23.108Z,1009.73
2022-09-28T10:19:10.399Z,1009.62
2022-09-28T10:20:10.910Z,1009.68
2022-09-28T10:21:11.438Z,1009.85
2022-09-28T10:22:11.942Z,1009.62
2022-09-28T10:23:12.444Z,1009.66
2022-09-28T10:24:12.942Z,1009.54
2022-09-28T10:25:13.455Z,1009.64
2022-09-28T10:26:13.998Z,1009.52
2022-09-28T10:27:14.494Z,1009.47
2022-09-28T10:28:15.015Z,1009.34
2022-09-28T10:29:15.655Z,1009.24
2022-09-28T10:30:16.210Z,1009.28
2022-09-28T10:31:16.742Z,1009.22
2022-09-28T10:32:17.235Z,1009.30
2022-09-28T10:33:17.736Z,1009.34
2022-09-28T10:34:18.351Z,1009.16
2022-09-28T10:35:18.905Z,1009.25
2022-09-28T10:36:19.432Z,1009.31
2022-09-28T10:37:19.931Z,1009.52
2022-09-28T10:38:20.427Z,1009.23
2022-09-28T10:39:20.935Z,1009.16
2022-09-28T10:40:21.489Z,1009.19
2022-09-28T10:41:22.072Z,1009.33
2022-09-28T10:42:22.575Z,1009.35
2022-09-28T10:43:23.095Z,1009.12
2022-09-28T10:44:23.600Z,1009.17
2022-09-28T10:45:24.099Z,1009.35
2022-09-28T10:46:24.735Z,1009.31
2022-09-28T10:47:25.275Z,1009.38
2022-09-28T10:48:25.770Z,1009.42
2022-09-28T10:49:26.273Z,1009.61
2022-09-28T10:50:26.779Z,1009.49
2022-09-28T10:51:27.425Z,1009.57
2022-09-28T10:52:27.919Z,1009.59
2022-09-28T10:53:28.422Z,1009.40
2022-09-28T10:54:28.917Z,1009.41
2022-09-28T10:55:29.414Z,1009.44
2022-09-28T10:56:29.939Z,1009.41
2022-09-28T10:57:30.436Z,1009.43
2022-09-28T10:58:30.956Z,1009.46
2022-09-28T10:59:31.462Z,1009.38
2022-09-28T11:00:31.982Z,1009.40
2022-09-28T11:01:32.724Z,1009.45
2022-09-28T11:02:35.927Z,1009.31
2022-09-28T11:03:33.797Z,1009.33
2022-09-28T11:04:34.289Z,1009.28
2022-09-28T11:05:46.009Z,1009.31
2022-09-28T11:06:37.443Z,1009.31
2022-09-28T11:07:36.439Z,1009.37
2022-09-28T11:08:36.939Z,1009.50
2022-09-28T11:09:37.432Z,1009.46
2022-09-28T11:10:37.929Z,1009.28
2022-09-28T11:11:38.965Z,1009.44
2022-09-28T11:12:39.474Z,1009.27
2022-09-28T11:13:40.006Z,1009.37
2022-09-28T11:14:42.652Z,1009.24
2022-09-28T11:15:41.288Z,1009.25
2022-09-28T11:16:41.904Z,1009.27
2022-09-28T11:17:42.475Z,1009.23
2022-09-28T11:18:42.974Z,1009.19
2022-09-28T11:19:43.482Z,1009.25
2022-09-28T11:20:45.518Z,1009.32
2022-09-28T11:21:44.654Z,1009.31
2022-09-28T11:22:45.171Z,1009.22
2022-09-28T11:23:45.678Z,1009.25
2022-09-28T11:24:46.182Z,1009.19
2022-09-28T11:25:46.677Z,1009.28
2022-09-28T11:26:47.716Z,1009.26
2022-09-28T11:27:48.283Z,1009.13
2022-09-28T11:28:48.810Z,1009.26
2022-09-28T11:29:49.315Z,1009.17
2022-09-28T11:30:49.899Z,1009.16
2022-09-28T11:31:50.463Z,1008.95
2022-09-28T11:32:50.972Z,1008.99
2022-09-28T11:33:51.487Z,1008.98
2022-09-28T11:34:59.634Z,1009.13
2022-09-28T11:35:52.842Z,1008.97
2022-09-28T11:36:53.369Z,1008.96
2022-09-28T11:37:53.861Z,1008.93
2022-09-28T11:38:54.352Z,1008.93
2022-09-28T11:39:55.366Z,1008.88
2022-09-28T11:40:55.921Z,1008.83
2022-09-28T11:41:56.494Z,1008.98
2022-09-28T11:42:57.054Z,1008.89
2022-09-28T11:43:57.619Z,1009.05
2022-09-28T11:44:58.136Z,1008.95
2022-09-28T11:45:58.695Z,1009.01
2022-09-28T11:46:59.244Z,1008.94
2022-09-28T11:47:59.745Z,1008.93
2022-09-28T11:49:00.244Z,1008.91
2022-09-28T11:50:00.759Z,1008.97
2022-09-28T11:51:01.256Z,1009.13
2022-09-28T11:52:01.979Z,1008.99
2022-09-28T11:53:02.518Z,1009.02
2022-09-28T11:54:03.016Z,1009.04
2022-09-28T11:55:03.516Z,1009.14
2022-09-28T11:56:08.514Z,1009.11
2022-09-28T11:57:04.912Z,1009.09
2022-09-28T11:58:05.420Z,1009.11
2022-09-28T11:59:05.953Z,1009.08
2022-09-28T12:00:06.450Z,1009.19
2022-09-28T12:01:07.447Z,1008.97
2022-09-28T12:02:08.652Z,1008.94
2022-09-28T12:03:09.375Z,1008.99
2022-09-28T12:04:10.026Z,1008.94
2022-09-28T12:05:10.526Z,1008.91
2022-09-28T12:06:11.028Z,1008.96
2022-09-28T12:07:11.560Z,1009.02
2022-09-28T12:08:12.054Z,1009.04
2022-09-28T12:09:12.587Z,1009.17
2022-09-28T12:10:13.101Z,1009.07
2022-09-28T12:11:13.621Z,1009.08
2022-09-28T12:12:14.149Z,1009.13
2022-09-28T12:13:14.653Z,1009.12
2022-09-28T12:14:15.191Z,1009.09
2022-09-28T12:15:15.691Z,1009.15